sensor_id;sensor_type;location;lat;lon;timestamp;P1;durP1;ratioP1;P2;durP2;ratioP2
63018;SDS011;49105;46.046;10.760;2022-10-26T00:00:46;1.70;;;1.70;;
63018;SDS011;49105;46.046;10.760;2022-10-26T00:03:12;1.92;;;1.92;;
63018;SDS011;49105;46.046;10.760;2022-10-26T00:05:37;1.70;;;1.70;;
63018;SDS011;49105;46.046;10.760;2022-10-26T00:08:03;1.70;;;1.70;;
63018;SDS011;49105;46.046;10.760;2022-10-26T00:10:29;1.70;;;1.70;;
63018;SDS011;49105;46.046;10.760;2022-10-26T00:12:55;1.80;;;1.80;;
63018;SDS011;49105;46.046;10.760;2022-10-26T00:15:20;2.00;;;2.00;;
63018;SDS011;49105;46.046;10.760;2022-10-26T00:17:46;2.15;;;2.15;;
63018;SDS011;49105;46.046;10.760;2022-10-26T00:20:13;2.10;;;2.10;;
63018;SDS011;49105;46.046;10.760;2022-10-26T00:22:39;1.80;;;1.80;;
63018;SDS011;49105;46.046;10.760;2022-10-26T00:25:05;1.80;;;1.80;;
63018;SDS011;49105;46.046;10.760;2022-10-26T00:27:31;2.78;;;2.67;;
63018;SDS011;49105;46.046;10.760;2022-10-26T00:29:58;1.77;;;1.77;;
63018;SDS011;49105;46.046;10.760;2022-10-26T00:32:27;1.85;;;1.85;;
63018;SDS011;49105;46.046;10.760;2022-10-26T00:34:52;1.80;;;1.80;;
63018;SDS011;49105;46.046;10.760;2022-10-26T00:37:18;1.60;;;1.60;;
63018;SDS011;49105;46.046;10.760;2022-10-26T00:39:43;1.80;;;1.80;;
63018;SDS011;49105;46.046;10.760;2022-10-26T00:42:11;1.80;;;1.80;;
63018;SDS011;49105;46.046;10.760;2022-10-26T00:47:11;1.70;;;1.70;;
63018;SDS011;49105;46.046;10.760;2022-10-26T00:49:41;1.80;;;1.80;;
63018;SDS011;49105;46.046;10.760;2022-10-26T00:52:10;2.00;;;2.00;;
63018;SDS011;49105;46.046;10.760;2022-10-26T00:54:37;1.85;;;1.85;;
63018;SDS011;49105;46.046;10.760;2022-10-26T00:57:02;1.80;;;1.80;;
63018;SDS011;49105;46.046;10.760;2022-10-26T00:59:28;1.60;;;1.60;;
63018;SDS011;49105;46.046;10.760;2022-10-26T01:01:53;1.80;;;1.80;;
63018;SDS011;49105;46.046;10.760;2022-10-26T01:04:19;2.45;;;2.35;;
63018;SDS011;49105;46.046;10.760;2022-10-26T01:06:45;1.80;;;1.80;;
63018;SDS011;49105;46.046;10.760;2022-10-26T01:09:11;1.90;;;1.90;;
63018;SDS011;49105;46.046;10.760;2022-10-26T01:11:37;2.08;;;2.08;;
63018;SDS011;49105;46.046;10.760;2022-10-26T01:14:03;1.90;;;1.90;;
63018;SDS011;49105;46.046;10.760;2022-10-26T01:24:37;2.10;;;2.10;;
63018;SDS011;49105;46.046;10.760;2022-10-26T01:27:35;2.00;;;2.00;;
63018;SDS011;49105;46.046;10.760;2022-10-26T01:32:45;2.00;;;2.00;;
63018;SDS011;49105;46.046;10.760;2022-10-26T01:43:37;2.10;;;2.10;;
63018;SDS011;49105;46.046;10.760;2022-10-26T01:46:07;1.90;;;1.90;;
63018;SDS011;49105;46.046;10.760;2022-10-26T01:48:35;2.10;;;2.10;;
63018;SDS011;49105;46.046;10.760;2022-10-26T01:51:02;2.05;;;2.03;;
63018;SDS011;49105;46.046;10.760;2022-10-26T01:53:30;2.00;;;2.00;;
63018;SDS011;49105;46.046;10.760;2022-10-26T01:55:55;2.03;;;2.03;;
63018;SDS011;49105;46.046;10.760;2022-10-26T02:11:53;1.90;;;1.90;;
63018;SDS011;49105;46.046;10.760;2022-10-26T02:17:07;1.80;;;1.80;;
63018;SDS011;49105;46.046;10.760;2022-10-26T02:19:46;2.00;;;2.00;;
63018;SDS011;49105;46.046;10.760;2022-10-26T02:22:19;1.80;;;1.80;;
63018;SDS011;49105;46.046;10.760;2022-10-26T02:24:50;1.80;;;1.80;;
63018;SDS011;49105;46.046;10.760;2022-10-26T02:27:19;1.90;;;1.90;;
63018;SDS011;49105;46.046;10.760;2022-10-26T02:29:48;2.35;;;1.90;;
63018;SDS011;49105;46.046;10.760;2022-10-26T02:32:17;1.80;;;1.80;;
63018;SDS011;49105;46.046;10.760;2022-10-26T02:34:44;1.90;;;1.90;;
63018;SDS011;49105;46.046;10.760;2022-10-26T02:37:13;2.20;;;2.20;;
63018;SDS011;49105;46.046;10.760;2022-10-26T02:39:42;1.80;;;1.80;;
63018;SDS011;49105;46.046;10.760;2022-10-26T02:42:12;1.80;;;1.80;;
63018;SDS011;49105;46.046;10.760;2022-10-26T02:44:54;1.63;;;1.63;;
63018;SDS011;49105;46.046;10.760;2022-10-26T02:47:24;1.80;;;1.80;;
63018;SDS011;49105;46.046;10.760;2022-10-26T02:49:51;1.95;;;1.95;;
63018;SDS011;49105;46.046;10.760;2022-10-26T02:57:41;1.80;;;1.80;;
63018;SDS011;49105;46.046;10.760;2022-10-26T03:00:12;1.90;;;1.90;;
63018;SDS011;49105;46.046;10.760;2022-10-26T03:02:44;2.10;;;2.10;;
63018;SDS011;49105;46.046;10.760;2022-10-26T03:05:18;2.30;;;2.30;;
63018;SDS011;49105;46.046;10.760;2022-10-26T03:07:47;2.10;;;2.10;;
63018;SDS011;49105;46.046;10.760;2022-10-26T03:10:12;2.20;;;2.20;;
63018;SDS011;49105;46.046;10.760;2022-10-26T03:12:38;2.00;;;2.00;;
63018;SDS011;49105;46.046;10.760;2022-10-26T03:15:03;2.22;;;2.22;;
63018;SDS011;49105;46.046;10.760;2022-10-26T03:17:29;2.00;;;2.00;;
63018;SDS011;49105;46.046;10.760;2022-10-26T03:19:55;2.40;;;2.30;;
63018;SDS011;49105;46.046;10.760;2022-10-26T03:22:20;2.20;;;2.20;;
63018;SDS011;49105;46.046;10.760;2022-10-26T03:24:46;2.42;;;2.42;;
63018;SDS011;49105;46.046;10.760;2022-10-26T03:27:12;2.40;;;2.30;;
63018;SDS011;49105;46.046;10.760;2022-10-26T03:29:38;2.00;;;2.00;;
63018;SDS011;49105;46.046;10.760;2022-10-26T03:32:04;2.30;;;2.30;;
63018;SDS011;49105;46.046;10.760;2022-10-26T03:34:30;1.90;;;1.90;;
63018;SDS011;49105;46.046;10.760;2022-10-26T03:36:55;2.50;;;2.40;;
63018;SDS011;49105;46.046;10.760;2022-10-26T03:39:20;1.80;;;1.80;;
63018;SDS011;49105;46.046;10.760;2022-10-26T03:41:46;1.90;;;1.90;;
63018;SDS011;49105;46.046;10.760;2022-10-26T03:44:12;1.95;;;1.95;;
63018;SDS011;49105;46.046;10.760;2022-10-26T03:46:37;1.95;;;1.95;;
63018;SDS011;49105;46.046;10.760;2022-10-26T03:49:03;2.58;;;2.47;;
63018;SDS011;49105;46.046;10.760;2022-10-26T03:51:29;1.90;;;1.90;;
63018;SDS011;49105;46.046;10.760;2022-10-26T03:53:54;1.98;;;1.98;;
63018;SDS011;49105;46.046;10.760;2022-10-26T03:56:20;1.80;;;1.80;;
63018;SDS011;49105;46.046;10.760;2022-10-26T03:58:45;2.17;;;2.17;;
63018;SDS011;49105;46.046;10.760;2022-10-26T04:01:11;2.10;;;2.10;;
63018;SDS011;49105;46.046;10.760;2022-10-26T04:03:36;2.00;;;2.00;;
63018;SDS011;49105;46.046;10.760;2022-10-26T04:06:02;1.88;;;1.88;;
63018;SDS011;49105;46.046;10.760;2022-10-26T04:08:28;1.80;;;1.80;;
63018;SDS011;49105;46.046;10.760;2022-10-26T04:10:53;1.70;;;1.70;;
63018;SDS011;49105;46.046;10.760;2022-10-26T04:13:19;1.88;;;1.88;;
63018;SDS011;49105;46.046;10.760;2022-10-26T04:15:44;2.00;;;2.00;;
63018;SDS011;49105;46.046;10.760;2022-10-26T04:18:09;1.90;;;1.90;;
63018;SDS011;49105;46.046;10.760;2022-10-26T04:20:38;1.90;;;1.90;;
63018;SDS011;49105;46.046;10.760;2022-10-26T04:23:06;1.98;;;1.98;;
63018;SDS011;49105;46.046;10.760;2022-10-26T04:25:35;2.00;;;2.00;;
63018;SDS011;49105;46.046;10.760;2022-10-26T04:28:01;2.03;;;2.03;;
63018;SDS011;49105;46.046;10.760;2022-10-26T04:30:29;2.40;;;2.35;;
63018;SDS011;49105;46.046;10.760;2022-10-26T04:32:55;2.25;;;2.25;;
63018;SDS011;49105;46.046;10.760;2022-10-26T04:35:20;2.10;;;2.10;;
63018;SDS011;49105;46.046;10.760;2022-10-26T04:37:46;2.28;;;2.28;;
63018;SDS011;49105;46.046;10.760;2022-10-26T04:40:11;2.33;;;2.33;;
63018;SDS011;49105;46.046;10.760;2022-10-26T04:42:44;2.30;;;2.30;;
63018;SDS011;49105;46.046;10.760;2022-10-26T04:45:11;2.70;;;2.60;;
63018;SDS011;49105;46.046;10.760;2022-10-26T04:47:38;2.40;;;2.30;;
63018;SDS011;49105;46.046;10.760;2022-10-26T04:50:04;2.00;;;2.00;;
63018;SDS011;49105;46.046;10.760;2022-10-26T04:52:30;2.20;;;2.20;;
63018;SDS011;49105;46.046;10.760;2022-10-26T04:54:56;2.10;;;2.10;;
63018;SDS011;49105;46.046;10.760;2022-10-26T04:57:21;2.10;;;2.10;;
63018;SDS011;49105;46.046;10.760;2022-10-26T04:59:46;8.88;;;2.85;;
63018;SDS011;49105;46.046;10.760;2022-10-26T05:02:12;2.10;;;2.10;;
63018;SDS011;49105;46.046;10.760;2022-10-26T05:04:37;1.90;;;1.90;;
63018;SDS011;49105;46.046;10.760;2022-10-26T05:07:02;2.10;;;2.10;;
63018;SDS011;49105;46.046;10.760;2022-10-26T05:09:28;1.95;;;1.95;;
63018;SDS011;49105;46.046;10.760;2022-10-26T05:11:53;1.90;;;1.90;;
63018;SDS011;49105;46.046;10.760;2022-10-26T05:14:19;2.10;;;2.10;;
63018;SDS011;49105;46.046;10.760;2022-10-26T05:16:44;1.75;;;1.75;;
63018;SDS011;49105;46.046;10.760;2022-10-26T05:19:10;1.60;;;1.60;;
63018;SDS011;49105;46.046;10.760;2022-10-26T05:21:35;1.80;;;1.80;;
63018;SDS011;49105;46.046;10.760;2022-10-26T05:24:01;1.80;;;1.80;;
63018;SDS011;49105;46.046;10.760;2022-10-26T05:26:26;1.70;;;1.70;;
63018;SDS011;49105;46.046;10.760;2022-10-26T05:28:52;1.70;;;1.70;;
63018;SDS011;49105;46.046;10.760;2022-10-26T05:31:18;1.90;;;1.90;;
63018;SDS011;49105;46.046;10.760;2022-10-26T05:33:48;2.00;;;2.00;;
63018;SDS011;49105;46.046;10.760;2022-10-26T05:36:16;1.90;;;1.90;;
63018;SDS011;49105;46.046;10.760;2022-10-26T05:38:42;2.17;;;2.10;;
63018;SDS011;49105;46.046;10.760;2022-10-26T05:41:07;1.75;;;1.75;;
63018;SDS011;49105;46.046;10.760;2022-10-26T05:43:33;1.88;;;1.88;;
63018;SDS011;49105;46.046;10.760;2022-10-26T05:45:58;1.60;;;1.60;;
63018;SDS011;49105;46.046;10.760;2022-10-26T05:48:23;1.90;;;1.90;;
63018;SDS011;49105;46.046;10.760;2022-10-26T05:50:49;1.67;;;1.67;;
63018;SDS011;49105;46.046;10.760;2022-10-26T05:53:15;1.77;;;1.77;;
63018;SDS011;49105;46.046;10.760;2022-10-26T05:55:40;2.00;;;2.00;;
63018;SDS011;49105;46.046;10.760;2022-10-26T05:58:10;1.60;;;1.60;;
63018;SDS011;49105;46.046;10.760;2022-10-26T06:00:36;1.80;;;1.80;;
63018;SDS011;49105;46.046;10.760;2022-10-26T06:05:52;1.70;;;1.70;;
63018;SDS011;49105;46.046;10.760;2022-10-26T06:08:20;1.70;;;1.60;;
63018;SDS011;49105;46.046;10.760;2022-10-26T06:10:47;1.63;;;1.63;;
63018;SDS011;49105;46.046;10.760;2022-10-26T06:13:13;1.80;;;1.70;;
63018;SDS011;49105;46.046;10.760;2022-10-26T06:29:23;1.70;;;1.70;;
63018;SDS011;49105;46.046;10.760;2022-10-26T06:32:00;2.95;;;2.75;;
63018;SDS011;49105;46.046;10.760;2022-10-26T06:34:26;1.90;;;1.88;;
63018;SDS011;49105;46.046;10.760;2022-10-26T06:36:56;1.60;;;1.60;;
63018;SDS011;49105;46.046;10.760;2022-10-26T06:39:24;2.35;;;2.25;;
63018;SDS011;49105;46.046;10.760;2022-10-26T06:41:53;1.90;;;1.90;;
63018;SDS011;49105;46.046;10.760;2022-10-26T06:44:21;1.70;;;1.70;;
63018;SDS011;49105;46.046;10.760;2022-10-26T06:47:09;1.77;;;1.77;;
63018;SDS011;49105;46.046;10.760;2022-10-26T06:57:17;2.42;;;2.33;;
63018;SDS011;49105;46.046;10.760;2022-10-26T06:59:48;2.08;;;2.08;;
63018;SDS011;49105;46.046;10.760;2022-10-26T07:02:16;2.25;;;2.15;;
63018;SDS011;49105;46.046;10.760;2022-10-26T07:04:42;1.60;;;1.60;;
63018;SDS011;49105;46.046;10.760;2022-10-26T07:07:09;1.70;;;1.70;;
63018;SDS011;49105;46.046;10.760;2022-10-26T07:09:38;2.20;;;2.10;;
63018;SDS011;49105;46.046;10.760;2022-10-26T07:12:03;1.80;;;1.80;;
63018;SDS011;49105;46.046;10.760;2022-10-26T07:14:29;1.80;;;1.80;;
63018;SDS011;49105;46.046;10.760;2022-10-26T07:16:54;1.42;;;1.42;;
63018;SDS011;49105;46.046;10.760;2022-10-26T07:19:21;1.90;;;1.90;;
63018;SDS011;49105;46.046;10.760;2022-10-26T07:21:46;2.20;;;2.17;;
63018;SDS011;49105;46.046;10.760;2022-10-26T07:24:12;6.10;;;2.42;;
63018;SDS011;49105;46.046;10.760;2022-10-26T07:26:37;1.73;;;1.73;;
63018;SDS011;49105;46.046;10.760;2022-10-26T07:29:03;2.47;;;2.38;;
63018;SDS011;49105;46.046;10.760;2022-10-26T07:31:28;1.83;;;1.83;;
63018;SDS011;49105;46.046;10.760;2022-10-26T07:33:53;1.60;;;1.60;;
63018;SDS011;49105;46.046;10.760;2022-10-26T07:36:19;1.50;;;1.50;;
63018;SDS011;49105;46.046;10.760;2022-10-26T07:38:44;3.63;;;2.70;;
63018;SDS011;49105;46.046;10.760;2022-10-26T07:41:10;1.58;;;1.58;;
63018;SDS011;49105;46.046;10.760;2022-10-26T07:43:35;3.00;;;2.90;;
63018;SDS011;49105;46.046;10.760;2022-10-26T07:46:00;1.67;;;1.67;;
63018;SDS011;49105;46.046;10.760;2022-10-26T07:48:26;1.80;;;1.80;;
63018;SDS011;49105;46.046;10.760;2022-10-26T07:50:51;1.52;;;1.52;;
63018;SDS011;49105;46.046;10.760;2022-10-26T07:53:17;1.40;;;1.40;;
63018;SDS011;49105;46.046;10.760;2022-10-26T07:55:42;2.10;;;2.00;;
63018;SDS011;49105;46.046;10.760;2022-10-26T07:58:08;1.50;;;1.50;;
63018;SDS011;49105;46.046;10.760;2022-10-26T08:00:33;1.60;;;1.60;;
63018;SDS011;49105;46.046;10.760;2022-10-26T08:02:58;1.55;;;1.55;;
63018;SDS011;49105;46.046;10.760;2022-10-26T08:05:24;1.67;;;1.67;;
63018;SDS011;49105;46.046;10.760;2022-10-26T08:07:49;1.40;;;1.40;;
63018;SDS011;49105;46.046;10.760;2022-10-26T08:10:15;2.22;;;2.15;;
63018;SDS011;49105;46.046;10.760;2022-10-26T08:12:41;1.30;;;1.30;;
63018;SDS011;49105;46.046;10.760;2022-10-26T08:15:08;1.70;;;1.70;;
63018;SDS011;49105;46.046;10.760;2022-10-26T08:17:34;1.92;;;1.92;;
63018;SDS011;49105;46.046;10.760;2022-10-26T08:19:59;1.67;;;1.67;;
63018;SDS011;49105;46.046;10.760;2022-10-26T08:22:27;1.83;;;1.83;;
63018;SDS011;49105;46.046;10.760;2022-10-26T08:24:53;1.75;;;1.75;;
63018;SDS011;49105;46.046;10.760;2022-10-26T08:27:18;2.00;;;2.00;;
63018;SDS011;49105;46.046;10.760;2022-10-26T08:29:44;1.90;;;1.90;;
63018;SDS011;49105;46.046;10.760;2022-10-26T08:32:09;1.90;;;1.90;;
63018;SDS011;49105;46.046;10.760;2022-10-26T08:34:35;1.98;;;1.98;;
63018;SDS011;49105;46.046;10.760;2022-10-26T08:37:00;1.67;;;1.67;;
63018;SDS011;49105;46.046;10.760;2022-10-26T08:39:25;1.63;;;1.63;;
63018;SDS011;49105;46.046;10.760;2022-10-26T08:42:01;1.45;;;1.45;;
63018;SDS011;49105;46.046;10.760;2022-10-26T08:44:50;2.15;;;2.05;;
63018;SDS011;49105;46.046;10.760;2022-10-26T08:47:30;1.55;;;1.55;;
63018;SDS011;49105;46.046;10.760;2022-10-26T08:50:24;1.88;;;1.88;;
63018;SDS011;49105;46.046;10.760;2022-10-26T08:55:29;1.58;;;1.58;;
63018;SDS011;49105;46.046;10.760;2022-10-26T08:58:00;2.10;;;2.00;;
63018;SDS011;49105;46.046;10.760;2022-10-26T09:00:30;1.52;;;1.52;;
63018;SDS011;49105;46.046;10.760;2022-10-26T09:02:56;1.55;;;1.55;;
63018;SDS011;49105;46.046;10.760;2022-10-26T09:05:22;1.60;;;1.58;;
63018;SDS011;49105;46.046;10.760;2022-10-26T09:17:10;1.73;;;1.73;;
63018;SDS011;49105;46.046;10.760;2022-10-26T09:25:32;2.10;;;2.10;;
63018;SDS011;49105;46.046;10.760;2022-10-26T09:28:03;1.70;;;1.70;;
63018;SDS011;49105;46.046;10.760;2022-10-26T09:30:30;1.70;;;1.70;;
63018;SDS011;49105;46.046;10.760;2022-10-26T09:32:57;1.70;;;1.70;;
63018;SDS011;49105;46.046;10.760;2022-10-26T09:35:30;1.60;;;1.60;;
63018;SDS011;49105;46.046;10.760;2022-10-26T09:38:13;2.47;;;2.37;;
63018;SDS011;49105;46.046;10.760;2022-10-26T09:40:49;2.10;;;2.10;;
63018;SDS011;49105;46.046;10.760;2022-10-26T09:46:02;1.80;;;1.80;;
63018;SDS011;49105;46.046;10.760;2022-10-26T09:51:02;1.88;;;1.77;;
63018;SDS011;49105;46.046;10.760;2022-10-26T09:53:27;1.38;;;1.38;;
63018;SDS011;49105;46.046;10.760;2022-10-26T09:56:06;1.50;;;1.50;;
63018;SDS011;49105;46.046;10.760;2022-10-26T09:58:41;1.83;;;1.83;;
63018;SDS011;49105;46.046;10.760;2022-10-26T10:01:19;1.50;;;1.50;;
63018;SDS011;49105;46.046;10.760;2022-10-26T10:03:45;1.77;;;1.77;;
63018;SDS011;49105;46.046;10.760;2022-10-26T10:08:41;2.53;;;2.42;;
63018;SDS011;49105;46.046;10.760;2022-10-26T10:11:08;1.80;;;1.80;;
63018;SDS011;49105;46.046;10.760;2022-10-26T10:13:36;1.55;;;1.55;;
63018;SDS011;49105;46.046;10.760;2022-10-26T10:16:13;1.50;;;1.50;;
63018;SDS011;49105;46.046;10.760;2022-10-26T10:18:51;2.00;;;2.00;;
63018;SDS011;49105;46.046;10.760;2022-10-26T10:21:31;1.50;;;1.50;;
63018;SDS011;49105;46.046;10.760;2022-10-26T10:23:59;2.33;;;2.22;;
63018;SDS011;49105;46.046;10.760;2022-10-26T10:26:24;1.70;;;1.70;;
63018;SDS011;49105;46.046;10.760;2022-10-26T10:28:59;1.73;;;1.73;;
63018;SDS011;49105;46.046;10.760;2022-10-26T10:31:29;1.98;;;1.95;;
63018;SDS011;49105;46.046;10.760;2022-10-26T10:33:56;1.73;;;1.73;;
63018;SDS011;49105;46.046;10.760;2022-10-26T10:36:22;1.60;;;1.60;;
63018;SDS011;49105;46.046;10.760;2022-10-26T10:38:54;1.70;;;1.70;;
63018;SDS011;49105;46.046;10.760;2022-10-26T10:41:38;1.70;;;1.70;;
63018;SDS011;49105;46.046;10.760;2022-10-26T10:47:00;1.65;;;1.65;;
63018;SDS011;49105;46.046;10.760;2022-10-26T10:49:27;1.70;;;1.70;;
63018;SDS011;49105;46.046;10.760;2022-10-26T10:51:54;1.50;;;1.50;;
63018;SDS011;49105;46.046;10.760;2022-10-26T10:54:31;1.50;;;1.50;;
63018;SDS011;49105;46.046;10.760;2022-10-26T10:59:52;1.33;;;1.33;;
63018;SDS011;49105;46.046;10.760;2022-10-26T11:02:50;1.50;;;1.50;;
63018;SDS011;49105;46.046;10.760;2022-10-26T11:08:20;1.40;;;1.40;;
63018;SDS011;49105;46.046;10.760;2022-10-26T11:16:33;1.80;;;1.80;;
63018;SDS011;49105;46.046;10.760;2022-10-26T11:21:51;1.70;;;1.70;;
63018;SDS011;49105;46.046;10.760;2022-10-26T11:24:26;2.30;;;2.28;;
63018;SDS011;49105;46.046;10.760;2022-10-26T11:27:04;1.70;;;1.70;;
63018;SDS011;49105;46.046;10.760;2022-10-26T11:32:47;1.80;;;1.80;;
63018;SDS011;49105;46.046;10.760;2022-10-26T11:35:30;1.70;;;1.70;;
63018;SDS011;49105;46.046;10.760;2022-10-26T11:40:46;2.47;;;2.38;;
63018;SDS011;49105;46.046;10.760;2022-10-26T11:43:36;1.80;;;1.80;;
63018;SDS011;49105;46.046;10.760;2022-10-26T11:46:06;1.80;;;1.80;;
63018;SDS011;49105;46.046;10.760;2022-10-26T11:48:40;1.80;;;1.80;;
63018;SDS011;49105;46.046;10.760;2022-10-26T11:51:39;1.70;;;1.70;;
63018;SDS011;49105;46.046;10.760;2022-10-26T11:54:10;2.20;;;2.10;;
63018;SDS011;49105;46.046;10.760;2022-10-26T11:56:42;1.77;;;1.77;;
63018;SDS011;49105;46.046;10.760;2022-10-26T11:59:18;1.60;;;1.60;;
63018;SDS011;49105;46.046;10.760;2022-10-26T12:01:53;1.88;;;1.88;;
63018;SDS011;49105;46.046;10.760;2022-10-26T12:04:35;1.85;;;1.85;;
63018;SDS011;49105;46.046;10.760;2022-10-26T12:07:05;2.08;;;2.08;;
63018;SDS011;49105;46.046;10.760;2022-10-26T12:09:37;1.80;;;1.73;;
63018;SDS011;49105;46.046;10.760;2022-10-26T12:14:45;1.90;;;1.90;;
63018;SDS011;49105;46.046;10.760;2022-10-26T12:17:29;2.03;;;1.98;;
63018;SDS011;49105;46.046;10.760;2022-10-26T12:20:12;1.90;;;1.90;;
63018;SDS011;49105;46.046;10.760;2022-10-26T12:23:02;1.63;;;1.63;;
63018;SDS011;49105;46.046;10.760;2022-10-26T12:25:29;1.70;;;1.70;;
63018;SDS011;49105;46.046;10.760;2022-10-26T12:27:55;1.80;;;1.80;;
63018;SDS011;49105;46.046;10.760;2022-10-26T12:30:23;1.85;;;1.85;;
63018;SDS011;49105;46.046;10.760;2022-10-26T12:32:55;1.70;;;1.70;;
63018;SDS011;49105;46.046;10.760;2022-10-26T12:37:56;1.58;;;1.58;;
63018;SDS011;49105;46.046;10.760;2022-10-26T12:45:40;1.35;;;1.35;;
63018;SDS011;49105;46.046;10.760;2022-10-26T12:48:52;1.60;;;1.60;;
63018;SDS011;49105;46.046;10.760;2022-10-26T12:54:03;1.50;;;1.50;;
63018;SDS011;49105;46.046;10.760;2022-10-26T12:56:41;1.60;;;1.60;;
63018;SDS011;49105;46.046;10.760;2022-10-26T12:59:40;1.60;;;1.60;;
63018;SDS011;49105;46.046;10.760;2022-10-26T13:07:33;1.48;;;1.48;;
63018;SDS011;49105;46.046;10.760;2022-10-26T13:15:38;1.50;;;1.50;;
63018;SDS011;49105;46.046;10.760;2022-10-26T13:18:16;1.50;;;1.50;;
63018;SDS011;49105;46.046;10.760;2022-10-26T13:20:57;1.58;;;1.58;;
63018;SDS011;49105;46.046;10.760;2022-10-26T13:23:33;1.40;;;1.40;;
63018;SDS011;49105;46.046;10.760;2022-10-26T13:30:57;1.30;;;1.30;;
63018;SDS011;49105;46.046;10.760;2022-10-26T13:33:24;1.27;;;1.27;;
63018;SDS011;49105;46.046;10.760;2022-10-26T13:35:56;1.10;;;1.10;;
63018;SDS011;49105;46.046;10.760;2022-10-26T13:38:24;1.30;;;1.30;;
63018;SDS011;49105;46.046;10.760;2022-10-26T13:40:59;1.40;;;1.40;;
63018;SDS011;49105;46.046;10.760;2022-10-26T13:43:30;1.30;;;1.30;;
63018;SDS011;49105;46.046;10.760;2022-10-26T13:45:59;1.10;;;1.10;;
63018;SDS011;49105;46.046;10.760;2022-10-26T13:48:30;1.20;;;1.20;;
63018;SDS011;49105;46.046;10.760;2022-10-26T13:51:02;2.05;;;1.50;;
63018;SDS011;49105;46.046;10.760;2022-10-26T13:53:37;1.20;;;1.20;;
63018;SDS011;49105;46.046;10.760;2022-10-26T13:56:08;1.20;;;1.20;;
63018;SDS011;49105;46.046;10.760;2022-10-26T13:58:40;1.50;;;1.50;;
63018;SDS011;49105;46.046;10.760;2022-10-26T14:01:14;1.30;;;1.30;;
63018;SDS011;49105;46.046;10.760;2022-10-26T14:03:41;1.45;;;1.45;;
63018;SDS011;49105;46.046;10.760;2022-10-26T14:08:42;1.55;;;1.55;;
63018;SDS011;49105;46.046;10.760;2022-10-26T14:11:12;1.30;;;1.30;;
63018;SDS011;49105;46.046;10.760;2022-10-26T14:13:40;1.20;;;1.20;;
63018;SDS011;49105;46.046;10.760;2022-10-26T14:16:09;1.48;;;1.48;;
63018;SDS011;49105;46.046;10.760;2022-10-26T14:18:35;1.40;;;1.40;;
63018;SDS011;49105;46.046;10.760;2022-10-26T14:21:05;1.50;;;1.50;;
63018;SDS011;49105;46.046;10.760;2022-10-26T14:23:47;1.50;;;1.50;;
63018;SDS011;49105;46.046;10.760;2022-10-26T14:26:21;1.70;;;1.70;;
63018;SDS011;49105;46.046;10.760;2022-10-26T14:28:55;1.40;;;1.40;;
63018;SDS011;49105;46.046;10.760;2022-10-26T14:31:26;1.70;;;1.70;;
63018;SDS011;49105;46.046;10.760;2022-10-26T14:33:56;1.33;;;1.33;;
63018;SDS011;49105;46.046;10.760;2022-10-26T14:36:42;1.35;;;1.35;;
63018;SDS011;49105;46.046;10.760;2022-10-26T14:39:37;1.50;;;1.50;;
63018;SDS011;49105;46.046;10.760;2022-10-26T14:44:55;1.52;;;1.52;;
63018;SDS011;49105;46.046;10.760;2022-10-26T14:47:28;1.42;;;1.42;;
63018;SDS011;49105;46.046;10.760;2022-10-26T14:49:55;1.80;;;1.80;;
63018;SDS011;49105;46.046;10.760;2022-10-26T14:52:26;1.90;;;1.90;;
63018;SDS011;49105;46.046;10.760;2022-10-26T14:55:01;1.40;;;1.40;;
63018;SDS011;49105;46.046;10.760;2022-10-26T14:57:38;1.33;;;1.33;;
63018;SDS011;49105;46.046;10.760;2022-10-26T15:00:13;2.13;;;2.03;;
63018;SDS011;49105;46.046;10.760;2022-10-26T15:02:47;1.80;;;1.80;;
63018;SDS011;49105;46.046;10.760;2022-10-26T15:05:25;2.72;;;2.63;;
63018;SDS011;49105;46.046;10.760;2022-10-26T15:07:57;2.47;;;2.28;;
63018;SDS011;49105;46.046;10.760;2022-10-26T15:13:10;1.70;;;1.70;;
63018;SDS011;49105;46.046;10.760;2022-10-26T15:15:45;1.58;;;1.58;;
63018;SDS011;49105;46.046;10.760;2022-10-26T15:20:57;1.90;;;1.90;;
63018;SDS011;49105;46.046;10.760;2022-10-26T15:23:23;1.90;;;1.90;;
63018;SDS011;49105;46.046;10.760;2022-10-26T15:26:02;1.77;;;1.77;;
63018;SDS011;49105;46.046;10.760;2022-10-26T15:28:38;1.73;;;1.73;;
63018;SDS011;49105;46.046;10.760;2022-10-26T15:33:36;3.10;;;2.90;;
63018;SDS011;49105;46.046;10.760;2022-10-26T15:36:31;2.50;;;2.40;;
63018;SDS011;49105;46.046;10.760;2022-10-26T15:38:57;2.22;;;2.22;;
63018;SDS011;49105;46.046;10.760;2022-10-26T15:41:27;2.50;;;2.40;;
63018;SDS011;49105;46.046;10.760;2022-10-26T15:43:55;2.63;;;2.53;;
63018;SDS011;49105;46.046;10.760;2022-10-26T15:48:55;2.20;;;2.20;;
63018;SDS011;49105;46.046;10.760;2022-10-26T15:51:22;2.40;;;2.30;;
63018;SDS011;49105;46.046;10.760;2022-10-26T15:53:48;2.00;;;2.00;;
63018;SDS011;49105;46.046;10.760;2022-10-26T15:56:17;2.20;;;2.20;;
63018;SDS011;49105;46.046;10.760;2022-10-26T15:58:44;2.63;;;2.53;;
63018;SDS011;49105;46.046;10.760;2022-10-26T16:01:14;2.40;;;2.40;;
63018;SDS011;49105;46.046;10.760;2022-10-26T16:03:42;2.30;;;2.30;;
63018;SDS011;49105;46.046;10.760;2022-10-26T16:06:15;2.55;;;2.55;;
63018;SDS011;49105;46.046;10.760;2022-10-26T16:08:50;2.38;;;2.38;;
63018;SDS011;49105;46.046;10.760;2022-10-26T16:11:17;2.70;;;2.60;;
63018;SDS011;49105;46.046;10.760;2022-10-26T16:13:43;2.35;;;2.35;;
63018;SDS011;49105;46.046;10.760;2022-10-26T16:16:10;2.80;;;2.70;;
63018;SDS011;49105;46.046;10.760;2022-10-26T16:18:37;2.42;;;2.42;;
63018;SDS011;49105;46.046;10.760;2022-10-26T16:21:02;2.85;;;2.75;;
63018;SDS011;49105;46.046;10.760;2022-10-26T16:23:28;2.40;;;2.40;;
63018;SDS011;49105;46.046;10.760;2022-10-26T16:25:53;2.95;;;2.85;;
63018;SDS011;49105;46.046;10.760;2022-10-26T16:28:18;3.15;;;3.05;;
63018;SDS011;49105;46.046;10.760;2022-10-26T16:30:44;3.15;;;2.95;;
63018;SDS011;49105;46.046;10.760;2022-10-26T16:33:09;3.30;;;3.20;;
63018;SDS011;49105;46.046;10.760;2022-10-26T16:35:35;3.00;;;2.80;;
63018;SDS011;49105;46.046;10.760;2022-10-26T16:38:00;2.88;;;2.75;;
63018;SDS011;49105;46.046;10.760;2022-10-26T16:40:25;3.10;;;3.00;;
63018;SDS011;49105;46.046;10.760;2022-10-26T16:42:51;3.20;;;3.10;;
63018;SDS011;49105;46.046;10.760;2022-10-26T16:45:16;3.08;;;2.97;;
63018;SDS011;49105;46.046;10.760;2022-10-26T16:47:42;2.78;;;2.67;;
63018;SDS011;49105;46.046;10.760;2022-10-26T16:50:08;2.65;;;2.60;;
63018;SDS011;49105;46.046;10.760;2022-10-26T16:52:36;2.80;;;2.70;;
63018;SDS011;49105;46.046;10.760;2022-10-26T16:55:02;2.67;;;2.58;;
63018;SDS011;49105;46.046;10.760;2022-10-26T16:57:29;2.30;;;2.30;;
63018;SDS011;49105;46.046;10.760;2022-10-26T16:59:55;2.65;;;2.55;;
63018;SDS011;49105;46.046;10.760;2022-10-26T17:02:21;2.40;;;2.40;;
63018;SDS011;49105;46.046;10.760;2022-10-26T17:04:47;2.90;;;2.80;;
63018;SDS011;49105;46.046;10.760;2022-10-26T17:07:13;2.35;;;2.35;;
63018;SDS011;49105;46.046;10.760;2022-10-26T17:09:38;3.65;;;3.45;;
63018;SDS011;49105;46.046;10.760;2022-10-26T17:12:04;3.33;;;3.22;;
63018;SDS011;49105;46.046;10.760;2022-10-26T17:14:29;3.97;;;3.78;;
63018;SDS011;49105;46.046;10.760;2022-10-26T17:16:56;2.88;;;2.78;;
63018;SDS011;49105;46.046;10.760;2022-10-26T17:19:21;2.75;;;2.65;;
63018;SDS011;49105;46.046;10.760;2022-10-26T17:21:46;2.95;;;2.85;;
63018;SDS011;49105;46.046;10.760;2022-10-26T17:24:12;2.50;;;2.50;;
63018;SDS011;49105;46.046;10.760;2022-10-26T17:26:38;3.20;;;3.10;;